sensor_id;sensor_type;location;lat;lon;timestamp;temperature;humidity
58582;DHT22;44361;51.476;5.700;2023-07-30T00:00:52;14.80;99.90
58582;DHT22;44361;51.476;5.700;2023-07-30T00:03:17;14.80;99.90
58582;DHT22;44361;51.476;5.700;2023-07-30T00:05:54;14.80;99.90
58582;DHT22;44361;51.476;5.700;2023-07-30T00:08:20;14.70;99.90
58582;DHT22;44361;51.476;5.700;2023-07-30T00:10:46;14.70;99.90
58582;DHT22;44361;51.476;5.700;2023-07-30T00:13:12;14.70;99.90
58582;DHT22;44361;51.476;5.700;2023-07-30T00:15:37;14.70;99.90
58582;DHT22;44361;51.476;5.700;2023-07-30T00:18:03;14.70;99.90
58582;DHT22;44361;51.476;5.700;2023-07-30T00:20:28;14.60;99.90
58582;DHT22;44361;51.476;5.700;2023-07-30T00:22:54;14.60;99.90
58582;DHT22;44361;51.476;5.700;2023-07-30T00:25:19;14.50;99.90
58582;DHT22;44361;51.476;5.700;2023-07-30T00:27:45;14.50;99.90
58582;DHT22;44361;51.476;5.700;2023-07-30T00:30:10;14.50;99.90
58582;DHT22;44361;51.476;5.700;2023-07-30T00:32:36;14.40;99.90
58582;DHT22;44361;51.476;5.700;2023-07-30T00:35:06;14.30;99.90
58582;DHT22;44361;51.476;5.700;2023-07-30T00:37:32;14.20;99.90
58582;DHT22;44361;51.476;5.700;2023-07-30T00:39:57;14.20;99.90
58582;DHT22;44361;51.476;5.700;2023-07-30T00:42:23;14.10;99.90
58582;DHT22;44361;51.476;5.700;2023-07-30T00:44:49;14.10;99.90
58582;DHT22;44361;51.476;5.700;2023-07-30T00:47:14;14.10;99.90
58582;DHT22;44361;51.476;5.700;2023-07-30T00:49:40;14.00;99.90
58582;DHT22;44361;51.476;5.700;2023-07-30T00:52:06;14.00;99.90
58582;DHT22;44361;51.476;5.700;2023-07-30T00:54:32;14.10;99.90
58582;DHT22;44361;51.476;5.700;2023-07-30T00:56:57;14.10;99.90
58582;DHT22;44361;51.476;5.700;2023-07-30T00:59:23;14.10;99.90
58582;DHT22;44361;51.476;5.700;2023-07-30T01:01:51;14.10;99.90
58582;DHT22;44361;51.476;5.700;2023-07-30T01:04:16;14.20;99.90
58582;DHT22;44361;51.476;5.700;2023-07-30T01:06:42;14.10;99.90
58582;DHT22;44361;51.476;5.700;2023-07-30T01:09:09;14.10;99.90
58582;DHT22;44361;51.476;5.700;2023-07-30T01:11:36;14.10;99.90
58582;DHT22;44361;51.476;5.700;2023-07-30T01:14:03;14.10;99.90
58582;DHT22;44361;51.476;5.700;2023-07-30T01:16:30;14.10;99.90
58582;DHT22;44361;51.476;5.700;2023-07-30T01:18:55;14.10;99.90
58582;DHT22;44361;51.476;5.700;2023-07-30T01:21:21;14.00;99.90
58582;DHT22;44361;51.476;5.700;2023-07-30T01:23:47;14.00;99.90
58582;DHT22;44361;51.476;5.700;2023-07-30T01:26:19;14.00;99.90
58582;DHT22;44361;51.476;5.700;2023-07-30T01:28:48;14.00;99.90
58582;DHT22;44361;51.476;5.700;2023-07-30T01:31:16;14.00;99.90
58582;DHT22;44361;51.476;5.700;2023-07-30T01:33:42;14.00;99.90
58582;DHT22;44361;51.476;5.700;2023-07-30T01:36:11;13.90;99.90
58582;DHT22;44361;51.476;5.700;2023-07-30T01:38:40;13.90;99.90
58582;DHT22;44361;51.476;5.700;2023-07-30T01:41:07;13.90;99.90
58582;DHT22;44361;51.476;5.700;2023-07-30T01:43:33;13.80;99.90
58582;DHT22;44361;51.476;5.700;2023-07-30T01:45:59;13.80;99.90
58582;DHT22;44361;51.476;5.700;2023-07-30T01:48:24;13.80;99.90
58582;DHT22;44361;51.476;5.700;2023-07-30T01:50:50;13.80;99.90
58582;DHT22;44361;51.476;5.700;2023-07-30T01:53:15;13.70;99.90
58582;DHT22;44361;51.476;5.700;2023-07-30T01:55:41;13.70;99.90
58582;DHT22;44361;51.476;5.700;2023-07-30T01:58:12;13.70;99.90
58582;DHT22;44361;51.476;5.700;2023-07-30T02:00:37;13.70;99.90
58582;DHT22;44361;51.476;5.700;2023-07-30T02:03:03;13.70;99.90
58582;DHT22;44361;51.476;5.700;2023-07-30T02:05:28;13.80;99.90
58582;DHT22;44361;51.476;5.700;2023-07-30T02:07:54;13.80;99.90
58582;DHT22;44361;51.476;5.700;2023-07-30T02:10:19;13.90;99.90
58582;DHT22;44361;51.476;5.700;2023-07-30T02:12:45;13.90;99.90
58582;DHT22;44361;51.476;5.700;2023-07-30T02:15:10;14.00;99.90
58582;DHT22;44361;51.476;5.700;2023-07-30T02:17:36;14.00;99.90
58582;DHT22;44361;51.476;5.700;2023-07-30T02:20:02;14.10;99.90
58582;DHT22;44361;51.476;5.700;2023-07-30T02:22:28;14.10;99.90
58582;DHT22;44361;51.476;5.700;2023-07-30T02:24:53;14.20;99.90
58582;DHT22;44361;51.476;5.700;2023-07-30T02:27:19;14.20;99.90
58582;DHT22;44361;51.476;5.700;2023-07-30T02:29:44;14.20;99.90
58582;DHT22;44361;51.476;5.700;2023-07-30T02:32:10;14.20;99.90
58582;DHT22;44361;51.476;5.700;2023-07-30T02:34:35;14.20;99.90
58582;DHT22;44361;51.476;5.700;2023-07-30T02:37:01;14.20;99.90
58582;DHT22;44361;51.476;5.700;2023-07-30T02:39:26;14.20;99.90
58582;DHT22;44361;51.476;5.700;2023-07-30T02:41:52;14.10;99.90
58582;DHT22;44361;51.476;5.700;2023-07-30T02:44:17;14.10;99.90
58582;DHT22;44361;51.476;5.700;2023-07-30T02:46:43;14.20;99.90
58582;DHT22;44361;51.476;5.700;2023-07-30T02:49:08;14.20;99.90
58582;DHT22;44361;51.476;5.700;2023-07-30T02:51:34;14.30;99.90
58582;DHT22;44361;51.476;5.700;2023-07-30T02:54:04;14.30;99.90
58582;DHT22;44361;51.476;5.700;2023-07-30T02:56:29;14.50;99.90
58582;DHT22;44361;51.476;5.700;2023-07-30T02:58:56;14.60;99.90
58582;DHT22;44361;51.476;5.700;2023-07-30T03:01:21;14.70;99.90
58582;DHT22;44361;51.476;5.700;2023-07-30T03:03:47;14.70;99.90
58582;DHT22;44361;51.476;5.700;2023-07-30T03:06:13;14.70;99.90
58582;DHT22;44361;51.476;5.700;2023-07-30T03:08:39;14.70;99.90
58582;DHT22;44361;51.476;5.700;2023-07-30T03:11:04;14.80;99.90
58582;DHT22;44361;51.476;5.700;2023-07-30T03:13:30;14.80;99.90
58582;DHT22;44361;51.476;5.700;2023-07-30T03:15:56;14.90;99.90
58582;DHT22;44361;51.476;5.700;2023-07-30T03:18:21;14.90;99.90
58582;DHT22;44361;51.476;5.700;2023-07-30T03:20:47;14.90;99.90
58582;DHT22;44361;51.476;5.700;2023-07-30T03:23:12;15.00;99.90
58582;DHT22;44361;51.476;5.700;2023-07-30T03:25:38;14.90;99.90
58582;DHT22;44361;51.476;5.700;2023-07-30T03:28:03;15.00;99.90
58582;DHT22;44361;51.476;5.700;2023-07-30T03:30:29;15.00;99.90
58582;DHT22;44361;51.476;5.700;2023-07-30T03:32:55;15.10;99.90
58582;DHT22;44361;51.476;5.700;2023-07-30T03:35:20;15.10;99.90
58582;DHT22;44361;51.476;5.700;2023-07-30T03:37:46;15.10;99.90
58582;DHT22;44361;51.476;5.700;2023-07-30T03:40:12;15.10;99.90
58582;DHT22;44361;51.476;5.700;2023-07-30T03:42:37;15.20;99.90
58582;DHT22;44361;51.476;5.700;2023-07-30T03:45:03;15.10;99.90
58582;DHT22;44361;51.476;5.700;2023-07-30T03:47:29;15.10;99.90
58582;DHT22;44361;51.476;5.700;2023-07-30T03:49:54;15.20;99.90
58582;DHT22;44361;51.476;5.700;2023-07-30T03:52:20;15.20;99.90
58582;DHT22;44361;51.476;5.700;2023-07-30T03:54:45;15.20;99.90
58582;DHT22;44361;51.476;5.700;2023-07-30T03:57:12;15.20;99.90
58582;DHT22;44361;51.476;5.700;2023-07-30T03:59:38;15.20;99.90
58582;DHT22;44361;51.476;5.700;2023-07-30T04:02:03;15.20;99.90
58582;DHT22;44361;51.476;5.700;2023-07-30T04:04:29;15.30;99.90
58582;DHT22;44361;51.476;5.700;2023-07-30T04:06:55;15.30;99.90
58582;DHT22;44361;51.476;5.700;2023-07-30T04:09:21;15.30;99.90
58582;DHT22;44361;51.476;5.700;2023-07-30T04:11:46;15.30;99.90
58582;DHT22;44361;51.476;5.700;2023-07-30T04:14:12;15.30;99.90
58582;DHT22;44361;51.476;5.700;2023-07-30T04:16:37;15.30;99.90
58582;DHT22;44361;51.476;5.700;2023-07-30T04:19:03;15.30;99.90
58582;DHT22;44361;51.476;5.700;2023-07-30T04:21:29;15.30;99.90
58582;DHT22;44361;51.476;5.700;2023-07-30T04:23:54;15.30;99.90
58582;DHT22;44361;51.476;5.700;2023-07-30T04:26:20;15.40;99.90
58582;DHT22;44361;51.476;5.700;2023-07-30T04:28:45;15.30;99.90
58582;DHT22;44361;51.476;5.700;2023-07-30T04:31:11;15.40;99.90
58582;DHT22;44361;51.476;5.700;2023-07-30T04:33:36;15.50;99.90
58582;DHT22;44361;51.476;5.700;2023-07-30T04:36:02;15.50;99.90
58582;DHT22;44361;51.476;5.700;2023-07-30T04:38:28;15.50;99.90
58582;DHT22;44361;51.476;5.700;2023-07-30T04:40:57;15.60;99.90
58582;DHT22;44361;51.476;5.700;2023-07-30T04:43:23;15.60;99.90
58582;DHT22;44361;51.476;5.700;2023-07-30T04:45:49;15.70;99.90
58582;DHT22;44361;51.476;5.700;2023-07-30T04:48:14;15.80;99.90
58582;DHT22;44361;51.476;5.700;2023-07-30T04:50:40;15.80;99.90
58582;DHT22;44361;51.476;5.700;2023-07-30T04:53:07;15.90;99.90
58582;DHT22;44361;51.476;5.700;2023-07-30T04:55:34;15.90;99.90
58582;DHT22;44361;51.476;5.700;2023-07-30T04:57:59;16.00;99.90
58582;DHT22;44361;51.476;5.700;2023-07-30T05:00:25;16.00;99.90
58582;DHT22;44361;51.476;5.700;2023-07-30T05:02:50;16.00;99.90
58582;DHT22;44361;51.476;5.700;2023-07-30T05:05:16;16.10;99.90
58582;DHT22;44361;51.476;5.700;2023-07-30T05:07:41;16.10;99.90
58582;DHT22;44361;51.476;5.700;2023-07-30T05:10:07;16.20;99.90
58582;DHT22;44361;51.476;5.700;2023-07-30T05:12:36;16.20;99.90
58582;DHT22;44361;51.476;5.700;2023-07-30T05:15:01;16.20;99.90
58582;DHT22;44361;51.476;5.700;2023-07-30T05:17:27;16.30;99.90
58582;DHT22;44361;51.476;5.700;2023-07-30T05:19:52;16.30;99.90
58582;DHT22;44361;51.476;5.700;2023-07-30T05:22:18;16.20;99.90
58582;DHT22;44361;51.476;5.700;2023-07-30T05:24:44;16.20;99.90
58582;DHT22;44361;51.476;5.700;2023-07-30T05:27:10;16.20;99.90
58582;DHT22;44361;51.476;5.700;2023-07-30T05:29:35;16.30;99.90
58582;DHT22;44361;51.476;5.700;2023-07-30T05:32:01;16.20;99.90
58582;DHT22;44361;51.476;5.700;2023-07-30T05:34:26;16.20;99.90
58582;DHT22;44361;51.476;5.700;2023-07-30T05:36:52;16.30;99.90
58582;DHT22;44361;51.476;5.700;2023-07-30T05:39:17;16.30;99.90
58582;DHT22;44361;51.476;5.700;2023-07-30T05:41:43;16.30;99.90
58582;DHT22;44361;51.476;5.700;2023-07-30T05:44:08;16.30;99.90
58582;DHT22;44361;51.476;5.700;2023-07-30T05:46:34;16.40;99.90
58582;DHT22;44361;51.476;5.700;2023-07-30T05:49:00;16.40;99.90
58582;DHT22;44361;51.476;5.700;2023-07-30T05:51:25;16.50;99.90
58582;DHT22;44361;51.476;5.700;2023-07-30T05:53:51;16.50;99.90
58582;DHT22;44361;51.476;5.700;2023-07-30T05:56:16;16.60;99.90
58582;DHT22;44361;51.476;5.700;2023-07-30T05:58:44;16.50;99.90
58582;DHT22;44361;51.476;5.700;2023-07-30T06:01:09;16.60;99.90
58582;DHT22;44361;51.476;5.700;2023-07-30T06:03:37;16.70;99.90
58582;DHT22;44361;51.476;5.700;2023-07-30T06:06:03;16.70;99.90
58582;DHT22;44361;51.476;5.700;2023-07-30T06:08:28;16.80;99.90
58582;DHT22;44361;51.476;5.700;2023-07-30T06:10:55;16.80;99.90
58582;DHT22;44361;51.476;5.700;2023-07-30T06:13:20;16.80;99.90
58582;DHT22;44361;51.476;5.700;2023-07-30T06:15:46;16.70;99.90
58582;DHT22;44361;51.476;5.700;2023-07-30T06:18:12;16.80;99.90
58582;DHT22;44361;51.476;5.700;2023-07-30T06:20:37;16.90;99.90
58582;DHT22;44361;51.476;5.700;2023-07-30T06:23:03;16.90;99.90
58582;DHT22;44361;51.476;5.700;2023-07-30T06:25:29;16.90;99.90
58582;DHT22;44361;51.476;5.700;2023-07-30T06:27:55;17.00;99.90
58582;DHT22;44361;51.476;5.700;2023-07-30T06:30:24;17.10;99.90
58582;DHT22;44361;51.476;5.700;2023-07-30T06:32:49;17.10;99.90
58582;DHT22;44361;51.476;5.700;2023-07-30T06:35:15;17.00;99.90
58582;DHT22;44361;51.476;5.700;2023-07-30T06:37:40;17.10;99.90
58582;DHT22;44361;51.476;5.700;2023-07-30T06:40:06;17.10;99.90
58582;DHT22;44361;51.476;5.700;2023-07-30T06:42:32;17.00;99.90
58582;DHT22;44361;51.476;5.700;2023-07-30T06:44:58;17.10;99.90
58582;DHT22;44361;51.476;5.700;2023-07-30T06:47:24;17.10;99.90
58582;DHT22;44361;51.476;5.700;2023-07-30T06:49:49;17.20;99.90
58582;DHT22;44361;51.476;5.700;2023-07-30T06:52:15;17.30;99.90
58582;DHT22;44361;51.476;5.700;2023-07-30T06:54:40;17.40;99.90
58582;DHT22;44361;51.476;5.700;2023-07-30T06:57:06;17.50;99.90
58582;DHT22;44361;51.476;5.700;2023-07-30T06:59:31;17.60;99.90
58582;DHT22;44361;51.476;5.700;2023-07-30T07:01:57;17.70;99.90
58582;DHT22;44361;51.476;5.700;2023-07-30T07:04:23;17.90;99.90
58582;DHT22;44361;51.476;5.700;2023-07-30T07:06:48;17.90;99.90
58582;DHT22;44361;51.476;5.700;2023-07-30T07:09:13;18.00;99.90
58582;DHT22;44361;51.476;5.700;2023-07-30T07:11:39;18.20;99.90
58582;DHT22;44361;51.476;5.700;2023-07-30T07:14:05;18.50;99.90
58582;DHT22;44361;51.476;5.700;2023-07-30T07:16:30;18.60;99.90
58582;DHT22;44361;51.476;5.700;2023-07-30T07:18:56;18.60;99.90
58582;DHT22;44361;51.476;5.700;2023-07-30T07:21:21;18.60;99.90
58582;DHT22;44361;51.476;5.700;2023-07-30T07:23:47;18.40;99.90
58582;DHT22;44361;51.476;5.700;2023-07-30T07:26:12;18.40;99.90
58582;DHT22;44361;51.476;5.700;2023-07-30T07:28:38;18.20;99.90
58582;DHT22;44361;51.476;5.700;2023-07-30T07:31:03;18.00;99.90
58582;DHT22;44361;51.476;5.700;2023-07-30T07:33:29;18.00;99.90
58582;DHT22;44361;51.476;5.700;2023-07-30T07:36:05;18.10;99.90
58582;DHT22;44361;51.476;5.700;2023-07-30T07:38:31;18.20;99.90
58582;DHT22;44361;51.476;5.700;2023-07-30T07:40:57;18.40;99.90
58582;DHT22;44361;51.476;5.700;2023-07-30T07:43:24;18.60;99.90
58582;DHT22;44361;51.476;5.700;2023-07-30T07:45:50;18.90;99.90
58582;DHT22;44361;51.476;5.700;2023-07-30T07:48:15;19.10;99.90
58582;DHT22;44361;51.476;5.700;2023-07-30T07:50:41;19.50;99.90
58582;DHT22;44361;51.476;5.700;2023-07-30T07:53:06;19.80;99.90
58582;DHT22;44361;51.476;5.700;2023-07-30T07:55:32;19.90;99.90
58582;DHT22;44361;51.476;5.700;2023-07-30T07:57:58;20.10;99.90
58582;DHT22;44361;51.476;5.700;2023-07-30T08:00:23;20.60;99.90
58582;DHT22;44361;51.476;5.700;2023-07-30T08:02:49;20.70;99.90
58582;DHT22;44361;51.476;5.700;2023-07-30T08:05:15;20.40;99.90
58582;DHT22;44361;51.476;5.700;2023-07-30T08:07:40;20.20;99.90
58582;DHT22;44361;51.476;5.700;2023-07-30T08:10:06;19.90;99.90
58582;DHT22;44361;51.476;5.700;2023-07-30T08:12:32;19.70;99.90
58582;DHT22;44361;51.476;5.700;2023-07-30T08:14:58;19.60;99.90
58582;DHT22;44361;51.476;5.700;2023-07-30T08:17:24;19.50;99.90
58582;DHT22;44361;51.476;5.700;2023-07-30T08:19:50;19.60;99.90
58582;DHT22;44361;51.476;5.700;2023-07-30T08:22:15;19.70;99.90
58582;DHT22;44361;51.476;5.700;2023-07-30T08:24:41;19.80;99.90
58582;DHT22;44361;51.476;5.700;2023-07-30T08:27:06;19.90;99.90
58582;DHT22;44361;51.476;5.700;2023-07-30T08:29:32;20.10;99.90
58582;DHT22;44361;51.476;5.700;2023-07-30T08:31:57;20.40;99.90
58582;DHT22;44361;51.476;5.700;2023-07-30T08:34:23;20.50;99.90
58582;DHT22;44361;51.476;5.700;2023-07-30T08:36:48;20.70;99.90
58582;DHT22;44361;51.476;5.700;2023-07-30T08:39:14;20.60;99.90
58582;DHT22;44361;51.476;5.700;2023-07-30T08:41:40;20.50;99.90
58582;DHT22;44361;51.476;5.700;2023-07-30T08:44:06;20.50;99.90
58582;DHT22;44361;51.476;5.700;2023-07-30T08:46:32;20.10;99.90
58582;DHT22;44361;51.476;5.700;2023-07-30T08:48:57;20.00;99.90
58582;DHT22;44361;51.476;5.700;2023-07-30T08:51:23;19.80;99.90
58582;DHT22;44361;51.476;5.700;2023-07-30T08:53:51;19.60;99.90
58582;DHT22;44361;51.476;5.700;2023-07-30T08:56:17;19.70;99.90
58582;DHT22;44361;51.476;5.700;2023-07-30T08:58:44;19.80;99.90
58582;DHT22;44361;51.476;5.700;2023-07-30T09:01:12;20.20;99.90
58582;DHT22;44361;51.476;5.700;2023-07-30T09:03:39;20.90;99.90
58582;DHT22;44361;51.476;5.700;2023-07-30T09:06:06;21.30;99.90
58582;DHT22;44361;51.476;5.700;2023-07-30T09:08:32;21.50;99.90
58582;DHT22;44361;51.476;5.700;2023-07-30T09:11:09;21.50;99.90
58582;DHT22;44361;51.476;5.700;2023-07-30T09:13:40;21.50;99.90
58582;DHT22;44361;51.476;5.700;2023-07-30T09:16:10;21.30;99.90
58582;DHT22;44361;51.476;5.700;2023-07-30T09:18:45;20.90;99.90
58582;DHT22;44361;51.476;5.700;2023-07-30T09:21:12;20.80;99.90
58582;DHT22;44361;51.476;5.700;2023-07-30T09:23:42;20.80;99.90
58582;DHT22;44361;51.476;5.700;2023-07-30T09:26:09;20.70;99.90
58582;DHT22;44361;51.476;5.700;2023-07-30T09:28:34;21.10;99.90
58582;DHT22;44361;51.476;5.700;2023-07-30T09:31:01;21.10;99.90
58582;DHT22;44361;51.476;5.700;2023-07-30T09:33:27;21.20;99.90
58582;DHT22;44361;51.476;5.700;2023-07-30T09:35:52;21.10;99.90
58582;DHT22;44361;51.476;5.700;2023-07-30T09:38:19;21.00;99.90
58582;DHT22;44361;51.476;5.700;2023-07-30T09:40:45;21.10;99.90
58582;DHT22;44361;51.476;5.700;2023-07-30T09:43:14;21.30;99.90
58582;DHT22;44361;51.476;5.700;2023-07-30T09:45:40;21.10;99.90
58582;DHT22;44361;51.476;5.700;2023-07-30T09:48:09;21.00;99.90
58582;DHT22;44361;51.476;5.700;2023-07-30T09:50:38;21.10;99.90
58582;DHT22;44361;51.476;5.700;2023-07-30T09:53:04;20.90;99.90
58582;DHT22;44361;51.476;5.700;2023-07-30T09:55:30;21.10;99.90
58582;DHT22;44361;51.476;5.700;2023-07-30T09:57:57;21.40;99.90
58582;DHT22;44361;51.476;5.700;2023-07-30T10:00:22;21.40;99.90
58582;DHT22;44361;51.476;5.700;2023-07-30T10:02:49;21.80;99.90
58582;DHT22;44361;51.476;5.700;2023-07-30T10:05:17;22.60;99.90
58582;DHT22;44361;51.476;5.700;2023-07-30T10:07:54;22.70;99.90
58582;DHT22;44361;51.476;5.700;2023-07-30T10:10:22;22.40;99.90
58582;DHT22;44361;51.476;5.700;2023-07-30T10:12:49;22.50;99.90
58582;DHT22;44361;51.476;5.700;2023-07-30T10:15:19;22.30;99.90
58582;DHT22;44361;51.476;5.700;2023-07-30T10:17:45;22.10;99.90
58582;DHT22;44361;51.476;5.700;2023-07-30T10:20:24;22.10;99.90
58582;DHT22;44361;51.476;5.700;2023-07-30T10:22:52;22.00;99.90
58582;DHT22;44361;51.476;5.700;2023-07-30T10:25:21;22.10;99.90
58582;DHT22;44361;51.476;5.700;2023-07-30T10:27:50;22.10;99.90
58582;DHT22;44361;51.476;5.700;2023-07-30T10:30:17;22.30;99.90
58582;DHT22;44361;51.476;5.700;2023-07-30T10:35:52;22.10;99.90
58582;DHT22;44361;51.476;5.700;2023-07-30T10:38:29;22.20;99.90
58582;DHT22;44361;51.476;5.700;2023-07-30T10:41:05;22.60;99.90
58582;DHT22;44361;51.476;5.700;2023-07-30T10:43:41;22.60;99.60
58582;DHT22;44361;51.476;5.700;2023-07-30T10:46:09;22.10;99.90
58582;DHT22;44361;51.476;5.700;2023-07-30T10:48:43;22.10;99.90
58582;DHT22;44361;51.476;5.700;2023-07-30T10:51:17;22.60;99.80
58582;DHT22;44361;51.476;5.700;2023-07-30T10:53:48;22.90;99.90
58582;DHT22;44361;51.476;5.700;2023-07-30T10:56:16;23.50;99.70
58582;DHT22;44361;51.476;5.700;2023-07-30T10:58:42;23.70;99.00
58582;DHT22;44361;51.476;5.700;2023-07-30T11:01:08;23.30;98.80
58582;DHT22;44361;51.476;5.700;2023-07-30T11:03:35;22.90;98.30
58582;DHT22;44361;51.476;5.700;2023-07-30T11:06:02;22.40;98.40
58582;DHT22;44361;51.476;5.700;2023-07-30T11:08:42;22.20;98.50
58582;DHT22;44361;51.476;5.700;2023-07-30T11:11:09;22.10;98.40
58582;DHT22;44361;51.476;5.700;2023-07-30T11:13:36;22.50;98.90
58582;DHT22;44361;51.476;5.700;2023-07-30T11:16:04;22.90;98.00
58582;DHT22;44361;51.476;5.700;2023-07-30T11:18:33;23.10;96.70
58582;DHT22;44361;51.476;5.700;2023-07-30T11:21:06;23.10;97.50
58582;DHT22;44361;51.476;5.700;2023-07-30T11:23:33;23.20;97.70
58582;DHT22;44361;51.476;5.700;2023-07-30T11:26:01;23.20;97.50
58582;DHT22;44361;51.476;5.700;2023-07-30T11:30:58;23.50;96.80
58582;DHT22;44361;51.476;5.700;2023-07-30T11:33:25;23.10;97.60
58582;DHT22;44361;51.476;5.700;2023-07-30T11:35:51;22.70;97.10
58582;DHT22;44361;51.476;5.700;2023-07-30T11:38:17;22.10;96.90
58582;DHT22;44361;51.476;5.700;2023-07-30T11:40:46;21.50;97.70
58582;DHT22;44361;51.476;5.700;2023-07-30T11:43:11;21.00;98.50
58582;DHT22;44361;51.476;5.700;2023-07-30T11:45:37;20.20;99.90
58582;DHT22;44361;51.476;5.700;2023-07-30T11:48:10;19.70;99.90
58582;DHT22;44361;51.476;5.700;2023-07-30T11:50:46;19.60;99.90
58582;DHT22;44361;51.476;5.700;2023-07-30T11:53:13;20.20;99.90
58582;DHT22;44361;51.476;5.700;2023-07-30T11:55:40;21.10;99.90
58582;DHT22;44361;51.476;5.700;2023-07-30T11:58:09;21.60;99.90
58582;DHT22;44361;51.476;5.700;2023-07-30T12:00:40;22.00;98.90
58582;DHT22;44361;51.476;5.700;2023-07-30T12:03:09;22.00;97.00
58582;DHT22;44361;51.476;5.700;2023-07-30T12:05:36;21.80;97.50
58582;DHT22;44361;51.476;5.700;2023-07-30T12:08:13;21.80;97.90
58582;DHT22;44361;51.476;5.700;2023-07-30T12:10:43;21.80;97.90
58582;DHT22;44361;51.476;5.700;2023-07-30T12:15:39;21.80;97.70
58582;DHT22;44361;51.476;5.700;2023-07-30T12:18:04;21.80;97.60
58582;DHT22;44361;51.476;5.700;2023-07-30T12:20:30;21.90;98.40
58582;DHT22;44361;51.476;5.700;2023-07-30T12:22:55;22.10;98.10
58582;DHT22;44361;51.476;5.700;2023-07-30T12:25:21;22.40;98.10
58582;DHT22;44361;51.476;5.700;2023-07-30T12:27:46;22.50;95.40
58582;DHT22;44361;51.476;5.700;2023-07-30T12:30:12;22.60;96.90
58582;DHT22;44361;51.476;5.700;2023-07-30T12:32:38;22.60;96.10
58582;DHT22;44361;51.476;5.700;2023-07-30T12:35:04;22.40;95.80
58582;DHT22;44361;51.476;5.700;2023-07-30T12:37:30;22.00;94.20
58582;DHT22;44361;51.476;5.700;2023-07-30T12:39:58;21.90;95.30
58582;DHT22;44361;51.476;5.700;2023-07-30T12:42:23;22.00;96.40
58582;DHT22;44361;51.476;5.700;2023-07-30T12:44:49;21.90;94.40
58582;DHT22;44361;51.476;5.700;2023-07-30T12:47:14;21.90;94.90
58582;DHT22;44361;51.476;5.700;2023-07-30T12:49:40;21.50;95.90
58582;DHT22;44361;51.476;5.700;2023-07-30T12:52:06;21.10;98.40
58582;DHT22;44361;51.476;5.700;2023-07-30T12:54:31;20.20;99.80
58582;DHT22;44361;51.476;5.700;2023-07-30T12:56:57;19.80;99.90
58582;DHT22;44361;51.476;5.700;2023-07-30T12:59:22;19.80;99.90
58582;DHT22;44361;51.476;5.700;2023-07-30T13:01:48;20.10;99.90
58582;DHT22;44361;51.476;5.700;2023-07-30T13:04:13;20.80;99.90
58582;DHT22;44361;51.476;5.700;2023-07-30T13:06:39;21.40;99.90
58582;DHT22;44361;51.476;5.700;2023-07-30T13:09:04;21.70;99.90
58582;DHT22;44361;51.476;5.700;2023-07-30T13:11:30;22.30;99.90
58582;DHT22;44361;51.476;5.700;2023-07-30T13:13:55;22.60;99.20
58582;DHT22;44361;51.476;5.700;2023-07-30T13:16:21;22.30;99.10
58582;DHT22;44361;51.476;5.700;2023-07-30T13:18:46;22.20;97.80
58582;DHT22;44361;51.476;5.700;2023-07-30T13:21:12;22.00;97.70
58582;DHT22;44361;51.476;5.700;2023-07-30T13:23:38;22.10;97.90
58582;DHT22;44361;51.476;5.700;2023-07-30T13:26:03;22.30;97.30
58582;DHT22;44361;51.476;5.700;2023-07-30T13:28:29;22.40;96.30
58582;DHT22;44361;51.476;5.700;2023-07-30T13:30:54;22.40;95.60
58582;DHT22;44361;51.476;5.700;2023-07-30T13:33:20;22.60;97.50
58582;DHT22;44361;51.476;5.700;2023-07-30T13:35:45;22.80;94.90
58582;DHT22;44361;51.476;5.700;2023-07-30T13:38:11;22.90;97.50
58582;DHT22;44361;51.476;5.700;2023-07-30T13:40:36;22.60;94.70
58582;DHT22;44361;51.476;5.700;2023-07-30T13:43:02;22.00;94.60
58582;DHT22;44361;51.476;5.700;2023-07-30T13:45:27;21.80;96.30
58582;DHT22;44361;51.476;5.700;2023-07-30T13:47:53;21.90;96.20
58582;DHT22;44361;51.476;5.700;2023-07-30T13:50:19;22.00;96.00
58582;DHT22;44361;51.476;5.700;2023-07-30T13:52:45;21.80;94.50
58582;DHT22;44361;51.476;5.700;2023-07-30T13:55:11;22.10;94.70
58582;DHT22;44361;51.476;5.700;2023-07-30T13:57:37;22.30;95.00
58582;DHT22;44361;51.476;5.700;2023-07-30T14:00:03;22.40;94.10
58582;DHT22;44361;51.476;5.700;2023-07-30T14:02:28;22.20;95.10
58582;DHT22;44361;51.476;5.700;2023-07-30T14:04:54;22.30;95.00
58582;DHT22;44361;51.476;5.700;2023-07-30T14:07:20;22.70;94.60
58582;DHT22;44361;51.476;5.700;2023-07-30T14:09:45;23.10;94.70
58582;DHT22;44361;51.476;5.700;2023-07-30T14:12:11;23.10;93.70
58582;DHT22;44361;51.476;5.700;2023-07-30T14:14:36;22.90;93.50
58582;DHT22;44361;51.476;5.700;2023-07-30T14:17:02;22.80;93.10
58582;DHT22;44361;51.476;5.700;2023-07-30T14:19:32;23.20;93.50
58582;DHT22;44361;51.476;5.700;2023-07-30T14:21:58;23.40;95.50
58582;DHT22;44361;51.476;5.700;2023-07-30T14:24:23;23.50;93.50
58582;DHT22;44361;51.476;5.700;2023-07-30T14:26:49;23.60;93.90
58582;DHT22;44361;51.476;5.700;2023-07-30T14:29:15;23.70;94.70
58582;DHT22;44361;51.476;5.700;2023-07-30T14:31:40;23.60;93.60
58582;DHT22;44361;51.476;5.700;2023-07-30T14:34:06;23.30;93.00
58582;DHT22;44361;51.476;5.700;2023-07-30T14:36:31;23.10;93.10
58582;DHT22;44361;51.476;5.700;2023-07-30T14:38:57;22.90;94.10
58582;DHT22;44361;51.476;5.700;2023-07-30T14:41:23;23.10;93.50
58582;DHT22;44361;51.476;5.700;2023-07-30T14:43:48;23.40;94.40
58582;DHT22;44361;51.476;5.700;2023-07-30T14:46:14;23.80;93.90
58582;DHT22;44361;51.476;5.700;2023-07-30T14:48:43;24.20;93.50
58582;DHT22;44361;51.476;5.700;2023-07-30T14:51:09;24.80;93.10
58582;DHT22;44361;51.476;5.700;2023-07-30T14:53:35;24.90;93.40
58582;DHT22;44361;51.476;5.700;2023-07-30T14:56:01;24.90;91.40
58582;DHT22;44361;51.476;5.700;2023-07-30T14:58:26;25.10;91.80
58582;DHT22;44361;51.476;5.700;2023-07-30T15:00:52;25.60;92.30
58582;DHT22;44361;51.476;5.700;2023-07-30T15:03:17;25.90;91.60
58582;DHT22;44361;51.476;5.700;2023-07-30T15:05:43;26.00;90.40
58582;DHT22;44361;51.476;5.700;2023-07-30T15:08:08;25.70;90.40
58582;DHT22;44361;51.476;5.700;2023-07-30T15:10:34;25.60;90.60
58582;DHT22;44361;51.476;5.700;2023-07-30T15:12:59;25.50;88.20
58582;DHT22;44361;51.476;5.700;2023-07-30T15:15:25;25.60;89.40
58582;DHT22;44361;51.476;5.700;2023-07-30T15:17:50;25.50;87.90
58582;DHT22;44361;51.476;5.700;2023-07-30T15:20:16;24.90;86.90
58582;DHT22;44361;51.476;5.700;2023-07-30T15:22:41;24.50;87.70
58582;DHT22;44361;51.476;5.700;2023-07-30T15:25:07;23.90;84.10
58582;DHT22;44361;51.476;5.700;2023-07-30T15:27:33;23.80;89.60
58582;DHT22;44361;51.476;5.700;2023-07-30T15:29:58;24.00;86.50
58582;DHT22;44361;51.476;5.700;2023-07-30T15:32:24;23.90;88.50